sensor_id;sensor_type;location;lat;lon;timestamp;temperature;humidity
6333;DHT22;3199;49.102;8.856;2022-12-18T00:03:35;-7.80;99.90
6333;DHT22;3199;49.102;8.856;2022-12-18T00:06:01;-7.80;99.90
6333;DHT22;3199;49.102;8.856;2022-12-18T00:08:27;-7.80;99.90
6333;DHT22;3199;49.102;8.856;2022-12-18T00:10:53;-7.80;99.90
6333;DHT22;3199;49.102;8.856;2022-12-18T00:13:18;-7.80;99.90
6333;DHT22;3199;49.102;8.856;2022-12-18T00:15:44;-7.90;99.90
6333;DHT22;3199;49.102;8.856;2022-12-18T00:18:09;-7.90;99.90
6333;DHT22;3199;49.102;8.856;2022-12-18T00:20:36;-7.90;99.90
6333;DHT22;3199;49.102;8.856;2022-12-18T00:23:02;-7.80;99.90
6333;DHT22;3199;49.102;8.856;2022-12-18T00:25:28;-7.80;99.90
6333;DHT22;3199;49.102;8.856;2022-12-18T00:27:53;-7.70;99.90
6333;DHT22;3199;49.102;8.856;2022-12-18T00:30:19;-7.70;99.90
6333;DHT22;3199;49.102;8.856;2022-12-18T00:32:44;-7.70;99.90
6333;DHT22;3199;49.102;8.856;2022-12-18T00:35:10;-7.70;99.90
6333;DHT22;3199;49.102;8.856;2022-12-18T00:37:36;-7.60;99.90
6333;DHT22;3199;49.102;8.856;2022-12-18T00:40:02;-7.60;99.90
6333;DHT22;3199;49.102;8.856;2022-12-18T00:42:28;-7.60;99.90
6333;DHT22;3199;49.102;8.856;2022-12-18T00:45:12;-7.60;99.90
6333;DHT22;3199;49.102;8.856;2022-12-18T00:47:38;-7.50;99.90
6333;DHT22;3199;49.102;8.856;2022-12-18T00:50:04;-7.50;99.90
6333;DHT22;3199;49.102;8.856;2022-12-18T00:52:29;-7.50;99.90
6333;DHT22;3199;49.102;8.856;2022-12-18T00:54:55;-7.50;99.90
6333;DHT22;3199;49.102;8.856;2022-12-18T00:57:21;-7.40;99.90
6333;DHT22;3199;49.102;8.856;2022-12-18T00:59:46;-7.40;99.90
6333;DHT22;3199;49.102;8.856;2022-12-18T01:02:11;-7.40;99.90
6333;DHT22;3199;49.102;8.856;2022-12-18T01:04:39;-7.40;99.90
6333;DHT22;3199;49.102;8.856;2022-12-18T01:07:04;-7.40;99.90
6333;DHT22;3199;49.102;8.856;2022-12-18T01:09:30;-7.40;99.90
6333;DHT22;3199;49.102;8.856;2022-12-18T01:11:55;-7.40;99.90
6333;DHT22;3199;49.102;8.856;2022-12-18T01:14:21;-7.40;99.90
6333;DHT22;3199;49.102;8.856;2022-12-18T01:16:46;-7.40;99.90
6333;DHT22;3199;49.102;8.856;2022-12-18T01:19:12;-7.40;99.90
6333;DHT22;3199;49.102;8.856;2022-12-18T01:21:37;-7.40;99.90
6333;DHT22;3199;49.102;8.856;2022-12-18T01:24:03;-7.40;99.90
6333;DHT22;3199;49.102;8.856;2022-12-18T01:26:29;-7.40;99.90
6333;DHT22;3199;49.102;8.856;2022-12-18T01:28:56;-7.40;99.90
6333;DHT22;3199;49.102;8.856;2022-12-18T01:31:27;-7.40;99.90
6333;DHT22;3199;49.102;8.856;2022-12-18T01:33:54;-7.40;99.90
6333;DHT22;3199;49.102;8.856;2022-12-18T01:36:26;-7.40;99.90
6333;DHT22;3199;49.102;8.856;2022-12-18T01:38:52;-7.40;99.90
6333;DHT22;3199;49.102;8.856;2022-12-18T01:41:21;-7.40;99.90
6333;DHT22;3199;49.102;8.856;2022-12-18T01:43:55;-7.40;99.90
6333;DHT22;3199;49.102;8.856;2022-12-18T01:46:23;-7.40;99.90
6333;DHT22;3199;49.102;8.856;2022-12-18T01:48:54;-7.40;99.90
6333;DHT22;3199;49.102;8.856;2022-12-18T01:51:20;-7.40;99.90
6333;DHT22;3199;49.102;8.856;2022-12-18T01:53:47;-7.40;99.90
6333;DHT22;3199;49.102;8.856;2022-12-18T01:56:15;-7.40;99.90
6333;DHT22;3199;49.102;8.856;2022-12-18T01:58:52;-7.40;99.90
6333;DHT22;3199;49.102;8.856;2022-12-18T02:01:21;-7.40;99.90
6333;DHT22;3199;49.102;8.856;2022-12-18T02:03:47;-7.40;99.90
6333;DHT22;3199;49.102;8.856;2022-12-18T02:06:21;-7.40;99.90
6333;DHT22;3199;49.102;8.856;2022-12-18T02:11:40;-7.30;99.90
6333;DHT22;3199;49.102;8.856;2022-12-18T02:14:31;-7.30;99.90
6333;DHT22;3199;49.102;8.856;2022-12-18T02:17:29;-7.40;99.90
6333;DHT22;3199;49.102;8.856;2022-12-18T02:22:46;-7.40;99.90
6333;DHT22;3199;49.102;8.856;2022-12-18T02:25:25;-7.40;99.90
6333;DHT22;3199;49.102;8.856;2022-12-18T02:27:56;-7.40;99.90
6333;DHT22;3199;49.102;8.856;2022-12-18T02:30:23;-7.40;99.90
6333;DHT22;3199;49.102;8.856;2022-12-18T02:32:52;-7.40;99.90
6333;DHT22;3199;49.102;8.856;2022-12-18T02:35:22;-7.40;99.90
6333;DHT22;3199;49.102;8.856;2022-12-18T02:37:49;-7.40;99.90
6333;DHT22;3199;49.102;8.856;2022-12-18T02:40:19;-7.40;99.90
6333;DHT22;3199;49.102;8.856;2022-12-18T02:42:44;-7.40;99.90
6333;DHT22;3199;49.102;8.856;2022-12-18T02:45:10;-7.40;99.90
6333;DHT22;3199;49.102;8.856;2022-12-18T02:47:38;-7.40;99.90
6333;DHT22;3199;49.102;8.856;2022-12-18T03:00:54;-7.40;99.90
6333;DHT22;3199;49.102;8.856;2022-12-18T03:03:29;-7.40;99.90
6333;DHT22;3199;49.102;8.856;2022-12-18T03:06:08;-7.40;99.90
6333;DHT22;3199;49.102;8.856;2022-12-18T03:08:39;-7.40;99.90
6333;DHT22;3199;49.102;8.856;2022-12-18T03:11:09;-7.40;99.90
6333;DHT22;3199;49.102;8.856;2022-12-18T03:16:09;-7.30;99.90
6333;DHT22;3199;49.102;8.856;2022-12-18T03:18:42;-7.30;99.90
6333;DHT22;3199;49.102;8.856;2022-12-18T03:21:11;-7.30;99.90
6333;DHT22;3199;49.102;8.856;2022-12-18T03:23:45;-7.30;99.90
6333;DHT22;3199;49.102;8.856;2022-12-18T03:26:15;-7.30;99.90
6333;DHT22;3199;49.102;8.856;2022-12-18T03:28:54;-7.30;99.90
6333;DHT22;3199;49.102;8.856;2022-12-18T03:31:23;-7.40;99.90
6333;DHT22;3199;49.102;8.856;2022-12-18T03:33:58;-7.40;99.90
6333;DHT22;3199;49.102;8.856;2022-12-18T03:36:25;-7.40;99.90
6333;DHT22;3199;49.102;8.856;2022-12-18T03:38:51;-7.40;99.90
6333;DHT22;3199;49.102;8.856;2022-12-18T03:41:18;-7.40;99.90
6333;DHT22;3199;49.102;8.856;2022-12-18T03:43:58;-7.40;99.90
6333;DHT22;3199;49.102;8.856;2022-12-18T03:46:49;-7.40;99.90
6333;DHT22;3199;49.102;8.856;2022-12-18T03:49:45;-7.30;99.90
6333;DHT22;3199;49.102;8.856;2022-12-18T03:52:21;-7.30;99.90
6333;DHT22;3199;49.102;8.856;2022-12-18T03:54:48;-7.30;99.90
6333;DHT22;3199;49.102;8.856;2022-12-18T03:57:18;-7.30;99.90
6333;DHT22;3199;49.102;8.856;2022-12-18T03:59:45;-7.40;99.90
6333;DHT22;3199;49.102;8.856;2022-12-18T04:02:12;-7.40;99.90
6333;DHT22;3199;49.102;8.856;2022-12-18T04:04:40;-7.40;99.90
6333;DHT22;3199;49.102;8.856;2022-12-18T04:07:06;-7.40;99.90
6333;DHT22;3199;49.102;8.856;2022-12-18T04:09:33;-7.40;99.90
6333;DHT22;3199;49.102;8.856;2022-12-18T04:11:59;-7.40;99.90
6333;DHT22;3199;49.102;8.856;2022-12-18T04:14:25;-7.40;99.90
6333;DHT22;3199;49.102;8.856;2022-12-18T04:16:51;-7.40;99.90
6333;DHT22;3199;49.102;8.856;2022-12-18T04:19:16;-7.40;99.90
6333;DHT22;3199;49.102;8.856;2022-12-18T04:21:42;-7.40;99.90
6333;DHT22;3199;49.102;8.856;2022-12-18T04:24:07;-7.40;99.90
6333;DHT22;3199;49.102;8.856;2022-12-18T04:26:33;-7.40;99.90
6333;DHT22;3199;49.102;8.856;2022-12-18T04:28:59;-7.40;99.90
6333;DHT22;3199;49.102;8.856;2022-12-18T04:31:25;-7.40;99.90
6333;DHT22;3199;49.102;8.856;2022-12-18T04:33:50;-7.50;99.90
6333;DHT22;3199;49.102;8.856;2022-12-18T04:36:16;-7.50;99.90
6333;DHT22;3199;49.102;8.856;2022-12-18T04:38:42;-7.50;99.90
6333;DHT22;3199;49.102;8.856;2022-12-18T04:41:07;-7.60;99.90
6333;DHT22;3199;49.102;8.856;2022-12-18T04:43:33;-7.60;99.90
6333;DHT22;3199;49.102;8.856;2022-12-18T04:46:06;-7.60;99.90
6333;DHT22;3199;49.102;8.856;2022-12-18T04:48:33;-7.60;99.90
6333;DHT22;3199;49.102;8.856;2022-12-18T04:50:58;-7.60;99.90
6333;DHT22;3199;49.102;8.856;2022-12-18T04:53:24;-7.70;99.90
6333;DHT22;3199;49.102;8.856;2022-12-18T04:55:50;-7.70;99.90
6333;DHT22;3199;49.102;8.856;2022-12-18T04:58:15;-7.70;99.90
6333;DHT22;3199;49.102;8.856;2022-12-18T05:00:41;-7.70;99.90
6333;DHT22;3199;49.102;8.856;2022-12-18T05:03:06;-7.70;99.90
6333;DHT22;3199;49.102;8.856;2022-12-18T05:05:34;-7.70;99.90
6333;DHT22;3199;49.102;8.856;2022-12-18T05:08:00;-7.70;99.90
6333;DHT22;3199;49.102;8.856;2022-12-18T05:10:25;-7.70;99.90
6333;DHT22;3199;49.102;8.856;2022-12-18T05:12:51;-7.60;99.90
6333;DHT22;3199;49.102;8.856;2022-12-18T05:15:28;-7.60;99.90
6333;DHT22;3199;49.102;8.856;2022-12-18T05:17:54;-7.60;99.90
6333;DHT22;3199;49.102;8.856;2022-12-18T05:20:19;-7.50;99.90
6333;DHT22;3199;49.102;8.856;2022-12-18T05:22:45;-7.50;99.90
6333;DHT22;3199;49.102;8.856;2022-12-18T05:25:10;-7.40;99.90
6333;DHT22;3199;49.102;8.856;2022-12-18T05:27:36;-7.30;99.90
6333;DHT22;3199;49.102;8.856;2022-12-18T05:30:02;-7.30;99.90
6333;DHT22;3199;49.102;8.856;2022-12-18T05:32:27;-7.30;99.90
6333;DHT22;3199;49.102;8.856;2022-12-18T05:34:53;-7.30;99.90
6333;DHT22;3199;49.102;8.856;2022-12-18T05:37:18;-7.20;99.90
6333;DHT22;3199;49.102;8.856;2022-12-18T05:39:44;-7.20;99.90
6333;DHT22;3199;49.102;8.856;2022-12-18T05:42:09;-7.20;99.90
6333;DHT22;3199;49.102;8.856;2022-12-18T05:44:35;-7.20;99.90
6333;DHT22;3199;49.102;8.856;2022-12-18T05:47:00;-7.20;99.90
6333;DHT22;3199;49.102;8.856;2022-12-18T05:49:26;-7.20;99.90
6333;DHT22;3199;49.102;8.856;2022-12-18T05:51:52;-7.20;99.90
6333;DHT22;3199;49.102;8.856;2022-12-18T05:54:17;-7.10;99.90
6333;DHT22;3199;49.102;8.856;2022-12-18T05:56:43;-7.10;99.90
6333;DHT22;3199;49.102;8.856;2022-12-18T05:59:08;-7.10;99.90
6333;DHT22;3199;49.102;8.856;2022-12-18T06:01:35;-7.10;99.90
6333;DHT22;3199;49.102;8.856;2022-12-18T06:04:00;-7.20;99.90
6333;DHT22;3199;49.102;8.856;2022-12-18T06:06:27;-7.20;99.90
6333;DHT22;3199;49.102;8.856;2022-12-18T06:08:53;-7.20;99.90
6333;DHT22;3199;49.102;8.856;2022-12-18T06:11:25;-7.20;99.90
6333;DHT22;3199;49.102;8.856;2022-12-18T06:13:52;-7.20;99.90
6333;DHT22;3199;49.102;8.856;2022-12-18T06:16:17;-7.20;99.90
6333;DHT22;3199;49.102;8.856;2022-12-18T06:18:43;-7.20;99.90
6333;DHT22;3199;49.102;8.856;2022-12-18T06:21:09;-7.20;99.90
6333;DHT22;3199;49.102;8.856;2022-12-18T06:23:35;-7.20;99.90
6333;DHT22;3199;49.102;8.856;2022-12-18T06:26:08;-7.20;99.90
6333;DHT22;3199;49.102;8.856;2022-12-18T06:28:34;-7.20;99.90
6333;DHT22;3199;49.102;8.856;2022-12-18T06:31:00;-7.20;99.90
6333;DHT22;3199;49.102;8.856;2022-12-18T06:33:27;-7.20;99.90
6333;DHT22;3199;49.102;8.856;2022-12-18T06:35:53;-7.20;99.90
6333;DHT22;3199;49.102;8.856;2022-12-18T06:38:19;-7.20;99.90
6333;DHT22;3199;49.102;8.856;2022-12-18T06:40:45;-7.10;99.90
6333;DHT22;3199;49.102;8.856;2022-12-18T06:43:10;-7.10;99.90
6333;DHT22;3199;49.102;8.856;2022-12-18T06:45:36;-7.10;99.90
6333;DHT22;3199;49.102;8.856;2022-12-18T06:48:01;-7.10;99.90
6333;DHT22;3199;49.102;8.856;2022-12-18T06:50:27;-7.10;99.90
6333;DHT22;3199;49.102;8.856;2022-12-18T06:52:52;-7.10;99.90
6333;DHT22;3199;49.102;8.856;2022-12-18T06:55:18;-7.00;99.90
6333;DHT22;3199;49.102;8.856;2022-12-18T06:57:44;-7.10;99.90
6333;DHT22;3199;49.102;8.856;2022-12-18T07:00:10;-7.10;99.90
6333;DHT22;3199;49.102;8.856;2022-12-18T07:02:35;-7.10;99.90
6333;DHT22;3199;49.102;8.856;2022-12-18T07:05:01;-7.10;99.90
6333;DHT22;3199;49.102;8.856;2022-12-18T07:07:26;-7.10;99.90
6333;DHT22;3199;49.102;8.856;2022-12-18T07:09:52;-7.10;99.90
6333;DHT22;3199;49.102;8.856;2022-12-18T07:12:18;-7.10;99.90
6333;DHT22;3199;49.102;8.856;2022-12-18T07:14:43;-7.20;99.90
6333;DHT22;3199;49.102;8.856;2022-12-18T07:17:09;-7.20;99.90
6333;DHT22;3199;49.102;8.856;2022-12-18T07:19:35;-7.10;99.90
6333;DHT22;3199;49.102;8.856;2022-12-18T07:22:00;-7.20;99.90
6333;DHT22;3199;49.102;8.856;2022-12-18T07:24:26;-7.20;99.90
6333;DHT22;3199;49.102;8.856;2022-12-18T07:26:52;-7.20;99.90
6333;DHT22;3199;49.102;8.856;2022-12-18T07:29:18;-7.20;99.90
6333;DHT22;3199;49.102;8.856;2022-12-18T07:31:44;-7.20;99.90
6333;DHT22;3199;49.102;8.856;2022-12-18T07:34:13;-7.20;99.90
6333;DHT22;3199;49.102;8.856;2022-12-18T07:36:39;-7.30;99.90
6333;DHT22;3199;49.102;8.856;2022-12-18T07:39:04;-7.30;99.90
6333;DHT22;3199;49.102;8.856;2022-12-18T07:41:30;-7.30;99.90
6333;DHT22;3199;49.102;8.856;2022-12-18T07:43:56;-7.30;99.90
6333;DHT22;3199;49.102;8.856;2022-12-18T07:46:21;-7.30;99.90
6333;DHT22;3199;49.102;8.856;2022-12-18T07:48:47;-7.30;99.90
6333;DHT22;3199;49.102;8.856;2022-12-18T07:51:13;-7.20;99.90
6333;DHT22;3199;49.102;8.856;2022-12-18T07:53:39;-7.20;99.90
6333;DHT22;3199;49.102;8.856;2022-12-18T07:56:08;-7.20;99.90
6333;DHT22;3199;49.102;8.856;2022-12-18T07:58:35;-7.20;99.90
6333;DHT22;3199;49.102;8.856;2022-12-18T08:01:06;-7.20;99.90
6333;DHT22;3199;49.102;8.856;2022-12-18T08:03:32;-7.20;99.90
6333;DHT22;3199;49.102;8.856;2022-12-18T08:06:02;-7.20;99.90
6333;DHT22;3199;49.102;8.856;2022-12-18T08:08:29;-7.20;99.90
6333;DHT22;3199;49.102;8.856;2022-12-18T08:10:55;-7.20;99.90
6333;DHT22;3199;49.102;8.856;2022-12-18T08:13:21;-7.20;99.90
6333;DHT22;3199;49.102;8.856;2022-12-18T08:16:02;-7.10;99.90
6333;DHT22;3199;49.102;8.856;2022-12-18T08:18:28;-7.10;99.90
6333;DHT22;3199;49.102;8.856;2022-12-18T08:20:54;-7.10;99.90
6333;DHT22;3199;49.102;8.856;2022-12-18T08:23:20;-7.00;99.90
6333;DHT22;3199;49.102;8.856;2022-12-18T08:25:46;-7.00;99.90
6333;DHT22;3199;49.102;8.856;2022-12-18T08:28:11;-6.90;99.90
6333;DHT22;3199;49.102;8.856;2022-12-18T08:30:37;-7.00;99.90
6333;DHT22;3199;49.102;8.856;2022-12-18T08:33:02;-6.90;99.90
6333;DHT22;3199;49.102;8.856;2022-12-18T08:35:28;-6.90;99.90
6333;DHT22;3199;49.102;8.856;2022-12-18T08:37:53;-6.90;99.90
6333;DHT22;3199;49.102;8.856;2022-12-18T08:40:19;-6.80;99.90
6333;DHT22;3199;49.102;8.856;2022-12-18T08:42:45;-6.80;99.90
6333;DHT22;3199;49.102;8.856;2022-12-18T08:45:29;-6.70;99.90
6333;DHT22;3199;49.102;8.856;2022-12-18T08:47:54;-6.70;99.90
6333;DHT22;3199;49.102;8.856;2022-12-18T08:50:20;-6.70;99.90
6333;DHT22;3199;49.102;8.856;2022-12-18T08:52:45;-6.60;99.90
6333;DHT22;3199;49.102;8.856;2022-12-18T08:55:11;-6.60;99.90
6333;DHT22;3199;49.102;8.856;2022-12-18T08:57:36;-6.60;99.90
6333;DHT22;3199;49.102;8.856;2022-12-18T09:00:04;-6.60;99.90
6333;DHT22;3199;49.102;8.856;2022-12-18T09:02:29;-6.60;99.90
6333;DHT22;3199;49.102;8.856;2022-12-18T09:04:55;-6.50;99.90
6333;DHT22;3199;49.102;8.856;2022-12-18T09:07:20;-6.50;99.90
6333;DHT22;3199;49.102;8.856;2022-12-18T09:09:46;-6.40;99.90
6333;DHT22;3199;49.102;8.856;2022-12-18T09:12:11;-6.30;99.90
6333;DHT22;3199;49.102;8.856;2022-12-18T09:14:37;-6.20;99.90
6333;DHT22;3199;49.102;8.856;2022-12-18T09:17:02;-6.20;99.90
6333;DHT22;3199;49.102;8.856;2022-12-18T09:19:28;-6.10;99.90
6333;DHT22;3199;49.102;8.856;2022-12-18T09:21:53;-6.00;99.90
6333;DHT22;3199;49.102;8.856;2022-12-18T09:24:19;-5.90;99.90
6333;DHT22;3199;49.102;8.856;2022-12-18T09:26:45;-5.80;99.90
6333;DHT22;3199;49.102;8.856;2022-12-18T09:29:10;-5.70;99.90
6333;DHT22;3199;49.102;8.856;2022-12-18T09:31:36;-5.60;99.90
6333;DHT22;3199;49.102;8.856;2022-12-18T09:34:03;-5.60;99.90
6333;DHT22;3199;49.102;8.856;2022-12-18T09:36:31;-5.50;99.90
6333;DHT22;3199;49.102;8.856;2022-12-18T09:38:57;-5.40;99.90
6333;DHT22;3199;49.102;8.856;2022-12-18T09:41:35;-5.40;99.90
6333;DHT22;3199;49.102;8.856;2022-12-18T09:44:13;-5.40;99.90
6333;DHT22;3199;49.102;8.856;2022-12-18T09:46:46;-5.30;99.90
6333;DHT22;3199;49.102;8.856;2022-12-18T09:49:16;-5.30;99.90
6333;DHT22;3199;49.102;8.856;2022-12-18T09:51:54;-5.20;99.90
6333;DHT22;3199;49.102;8.856;2022-12-18T09:54:42;-5.10;99.90
6333;DHT22;3199;49.102;8.856;2022-12-18T09:57:18;-5.10;99.90
6333;DHT22;3199;49.102;8.856;2022-12-18T09:59:49;-4.90;99.90
6333;DHT22;3199;49.102;8.856;2022-12-18T10:02:20;-4.80;99.90
6333;DHT22;3199;49.102;8.856;2022-12-18T10:05:17;-4.80;99.90
6333;DHT22;3199;49.102;8.856;2022-12-18T10:10:51;-4.60;99.90
6333;DHT22;3199;49.102;8.856;2022-12-18T10:16:25;-4.30;99.90
6333;DHT22;3199;49.102;8.856;2022-12-18T10:22:07;-4.10;99.90
6333;DHT22;3199;49.102;8.856;2022-12-18T10:24:45;-4.00;99.90
6333;DHT22;3199;49.102;8.856;2022-12-18T10:27:18;-4.00;99.90
6333;DHT22;3199;49.102;8.856;2022-12-18T10:29:46;-3.90;99.90
6333;DHT22;3199;49.102;8.856;2022-12-18T10:32:27;-3.90;99.90
6333;DHT22;3199;49.102;8.856;2022-12-18T10:34:55;-3.90;99.90
6333;DHT22;3199;49.102;8.856;2022-12-18T10:37:24;-3.90;99.90
6333;DHT22;3199;49.102;8.856;2022-12-18T10:40:11;-3.90;99.90
6333;DHT22;3199;49.102;8.856;2022-12-18T10:42:37;-3.80;99.90
6333;DHT22;3199;49.102;8.856;2022-12-18T10:47:35;-3.80;99.90
6333;DHT22;3199;49.102;8.856;2022-12-18T10:50:01;-3.80;99.90
6333;DHT22;3199;49.102;8.856;2022-12-18T10:52:27;-3.70;99.90
6333;DHT22;3199;49.102;8.856;2022-12-18T10:54:56;-3.60;99.90
6333;DHT22;3199;49.102;8.856;2022-12-18T10:59:56;-3.50;99.90
6333;DHT22;3199;49.102;8.856;2022-12-18T11:02:33;-3.50;99.90
6333;DHT22;3199;49.102;8.856;2022-12-18T11:05:00;-3.40;99.90
6333;DHT22;3199;49.102;8.856;2022-12-18T11:07:26;-3.30;99.90
6333;DHT22;3199;49.102;8.856;2022-12-18T11:10:16;-3.20;99.90
6333;DHT22;3199;49.102;8.856;2022-12-18T11:12:42;-3.10;99.90
6333;DHT22;3199;49.102;8.856;2022-12-18T11:15:22;-3.00;99.90
6333;DHT22;3199;49.102;8.856;2022-12-18T11:17:50;-2.90;99.90
6333;DHT22;3199;49.102;8.856;2022-12-18T11:23:01;-2.70;99.90
6333;DHT22;3199;49.102;8.856;2022-12-18T11:25:27;-2.50;99.90
6333;DHT22;3199;49.102;8.856;2022-12-18T11:27:56;-2.50;99.90
6333;DHT22;3199;49.102;8.856;2022-12-18T11:30:34;-2.40;99.90
6333;DHT22;3199;49.102;8.856;2022-12-18T11:33:06;-2.30;99.90
6333;DHT22;3199;49.102;8.856;2022-12-18T11:35:40;-2.20;99.90
6333;DHT22;3199;49.102;8.856;2022-12-18T11:41:25;-2.20;99.90
6333;DHT22;3199;49.102;8.856;2022-12-18T11:44:18;-2.10;99.90
6333;DHT22;3199;49.102;8.856;2022-12-18T11:46:53;-2.00;99.90
6333;DHT22;3199;49.102;8.856;2022-12-18T11:49:25;-2.00;99.90
6333;DHT22;3199;49.102;8.856;2022-12-18T11:51:58;-2.00;99.90
6333;DHT22;3199;49.102;8.856;2022-12-18T11:54:26;-1.90;99.90
6333;DHT22;3199;49.102;8.856;2022-12-18T11:57:19;-1.90;99.90
6333;DHT22;3199;49.102;8.856;2022-12-18T12:02:35;-1.80;99.90
6333;DHT22;3199;49.102;8.856;2022-12-18T12:07:53;-1.80;99.90
6333;DHT22;3199;49.102;8.856;2022-12-18T12:10:33;-1.80;99.90
6333;DHT22;3199;49.102;8.856;2022-12-18T12:16:04;-1.70;99.90
6333;DHT22;3199;49.102;8.856;2022-12-18T12:21:28;-1.40;99.90
6333;DHT22;3199;49.102;8.856;2022-12-18T12:24:09;-1.40;99.90
6333;DHT22;3199;49.102;8.856;2022-12-18T12:27:05;-1.40;99.90
6333;DHT22;3199;49.102;8.856;2022-12-18T12:30:22;-1.40;99.90
6333;DHT22;3199;49.102;8.856;2022-12-18T12:32:40;-1.40;99.90
6333;DHT22;3199;49.102;8.856;2022-12-18T12:40:51;-1.40;99.90
6333;DHT22;3199;49.102;8.856;2022-12-18T12:46:05;-1.40;99.90
6333;DHT22;3199;49.102;8.856;2022-12-18T12:48:47;-1.30;99.90
6333;DHT22;3199;49.102;8.856;2022-12-18T12:51:40;-1.40;99.90
6333;DHT22;3199;49.102;8.856;2022-12-18T12:54:12;-1.30;99.90
6333;DHT22;3199;49.102;8.856;2022-12-18T12:57:00;-1.40;99.90
6333;DHT22;3199;49.102;8.856;2022-12-18T13:05:33;-1.40;99.90
6333;DHT22;3199;49.102;8.856;2022-12-18T13:08:07;-1.30;99.90
6333;DHT22;3199;49.102;8.856;2022-12-18T13:10:39;-1.40;99.90
6333;DHT22;3199;49.102;8.856;2022-12-18T13:13:06;-1.50;99.90
6333;DHT22;3199;49.102;8.856;2022-12-18T13:20:36;-1.60;99.90
6333;DHT22;3199;49.102;8.856;2022-12-18T13:34:26;-1.60;99.90
6333;DHT22;3199;49.102;8.856;2022-12-18T13:36:54;-1.60;99.90
6333;DHT22;3199;49.102;8.856;2022-12-18T13:42:37;-1.50;99.90
6333;DHT22;3199;49.102;8.856;2022-12-18T13:44:38;-1.50;99.90
6333;DHT22;3199;49.102;8.856;2022-12-18T13:47:25;-1.50;99.90
6333;DHT22;3199;49.102;8.856;2022-12-18T13:49:51;-1.50;99.90
6333;DHT22;3199;49.102;8.856;2022-12-18T13:52:21;-1.50;99.90
6333;DHT22;3199;49.102;8.856;2022-12-18T13:54:51;-1.50;99.90
6333;DHT22;3199;49.102;8.856;2022-12-18T13:57:47;-1.50;99.90
6333;DHT22;3199;49.102;8.856;2022-12-18T14:00:31;-1.50;99.90
6333;DHT22;3199;49.102;8.856;2022-12-18T14:02:58;-1.50;99.90
6333;DHT22;3199;49.102;8.856;2022-12-18T14:05:36;-1.50;99.90
6333;DHT22;3199;49.102;8.856;2022-12-18T14:08:13;-1.50;99.90
6333;DHT22;3199;49.102;8.856;2022-12-18T14:10:41;-1.50;99.90
6333;DHT22;3199;49.102;8.856;2022-12-18T14:13:10;-1.50;99.90
6333;DHT22;3199;49.102;8.856;2022-12-18T14:15:43;-1.60;99.90
6333;DHT22;3199;49.102;8.856;2022-12-18T14:20:48;-1.60;99.90
6333;DHT22;3199;49.102;8.856;2022-12-18T14:23:33;-1.60;99.90
6333;DHT22;3199;49.102;8.856;2022-12-18T14:26:00;-1.60;99.90
6333;DHT22;3199;49.102;8.856;2022-12-18T14:28:27;-1.60;99.90
6333;DHT22;3199;49.102;8.856;2022-12-18T14:30:53;-1.70;99.90
6333;DHT22;3199;49.102;8.856;2022-12-18T14:33:25;-1.70;99.90
6333;DHT22;3199;49.102;8.856;2022-12-18T14:36:01;-1.70;99.90
6333;DHT22;3199;49.102;8.856;2022-12-18T14:40:59;-1.80;99.90
6333;DHT22;3199;49.102;8.856;2022-12-18T14:43:27;-1.80;99.90
6333;DHT22;3199;49.102;8.856;2022-12-18T14:45:53;-1.80;99.90
6333;DHT22;3199;49.102;8.856;2022-12-18T14:48:40;-1.80;99.90
6333;DHT22;3199;49.102;8.856;2022-12-18T14:51:19;-1.80;99.90
6333;DHT22;3199;49.102;8.856;2022-12-18T14:54:00;-1.80;99.90
6333;DHT22;3199;49.102;8.856;2022-12-18T14:58:58;-1.80;99.90
6333;DHT22;3199;49.102;8.856;2022-12-18T15:03:56;-1.80;99.90
6333;DHT22;3199;49.102;8.856;2022-12-18T15:06:29;-1.90;99.90
6333;DHT22;3199;49.102;8.856;2022-12-18T15:08:56;-1.90;99.90
6333;DHT22;3199;49.102;8.856;2022-12-18T15:11:32;-1.90;99.90
6333;DHT22;3199;49.102;8.856;2022-12-18T15:13:58;-1.90;99.90
6333;DHT22;3199;49.102;8.856;2022-12-18T15:16:24;-1.90;99.90
6333;DHT22;3199;49.102;8.856;2022-12-18T15:18:50;-1.90;99.90
6333;DHT22;3199;49.102;8.856;2022-12-18T15:21:20;-2.00;99.90
6333;DHT22;3199;49.102;8.856;2022-12-18T15:23:48;-2.00;99.90
6333;DHT22;3199;49.102;8.856;2022-12-18T15:26:17;-2.00;99.90
6333;DHT22;3199;49.102;8.856;2022-12-18T15:28:47;-2.00;99.90
6333;DHT22;3199;49.102;8.856;2022-12-18T15:36:15;-2.10;99.90
6333;DHT22;3199;49.102;8.856;2022-12-18T15:38:45;-2.10;99.90
6333;DHT22;3199;49.102;8.856;2022-12-18T15:41:16;-2.10;99.90
6333;DHT22;3199;49.102;8.856;2022-12-18T15:43:42;-2.10;99.90
6333;DHT22;3199;49.102;8.856;2022-12-18T15:46:16;-2.20;99.90
6333;DHT22;3199;49.102;8.856;2022-12-18T15:48:43;-2.20;99.90
6333;DHT22;3199;49.102;8.856;2022-12-18T15:51:21;-2.20;99.90
6333;DHT22;3199;49.102;8.856;2022-12-18T15:53:49;-2.20;99.90
6333;DHT22;3199;49.102;8.856;2022-12-18T15:56:16;-2.30;99.90
6333;DHT22;3199;49.102;8.856;2022-12-18T15:59:01;-2.30;99.90
6333;DHT22;3199;49.102;8.856;2022-12-18T16:01:28;-2.30;99.90
6333;DHT22;3199;49.102;8.856;2022-12-18T16:03:54;-2.30;99.90
6333;DHT22;3199;49.102;8.856;2022-12-18T16:06:20;-2.30;99.90
6333;DHT22;3199;49.102;8.856;2022-12-18T16:08:46;-2.20;99.90
6333;DHT22;3199;49.102;8.856;2022-12-18T16:11:24;-2.30;99.90
6333;DHT22;3199;49.102;8.856;2022-12-18T16:16:36;-2.20;99.90
6333;DHT22;3199;49.102;8.856;2022-12-18T16:19:02;-2.20;99.90
6333;DHT22;3199;49.102;8.856;2022-12-18T16:21:27;-2.30;99.90
6333;DHT22;3199;49.102;8.856;2022-12-18T16:23:53;-2.30;99.90
6333;DHT22;3199;49.102;8.856;2022-12-18T16:26:18;-2.30;99.90
6333;DHT22;3199;49.102;8.856;2022-12-18T16:28:44;-2.20;99.90
6333;DHT22;3199;49.102;8.856;2022-12-18T16:31:09;-2.30;99.90
6333;DHT22;3199;49.102;8.856;2022-12-18T16:33:35;-2.30;99.90
6333;DHT22;3199;49.102;8.856;2022-12-18T16:36:00;-2.30;99.90
6333;DHT22;3199;49.102;8.856;2022-12-18T16:38:26;-2.30;99.90
6333;DHT22;3199;49.102;8.856;2022-12-18T16:40:51;-2.30;99.90
6333;DHT22;3199;49.102;8.856;2022-12-18T16:43:35;-2.20;99.90
6333;DHT22;3199;49.102;8.856;2022-12-18T16:46:01;-2.20;99.90
6333;DHT22;3199;49.102;8.856;2022-12-18T16:48:26;-2.30;99.90
6333;DHT22;3199;49.102;8.856;2022-12-18T16:51:00;-2.30;99.90
6333;DHT22;3199;49.102;8.856;2022-12-18T16:53:26;-2.30;99.90
6333;DHT22;3199;49.102;8.856;2022-12-18T16:55:55;-2.20;99.90
6333;DHT22;3199;49.102;8.856;2022-12-18T16:58:21;-2.20;99.90
6333;DHT22;3199;49.102;8.856;2022-12-18T17:00:47;-2.20;99.90
6333;DHT22;3199;49.102;8.856;2022-12-18T17:03:12;-2.20;99.90
6333;DHT22;3199;49.102;8.856;2022-12-18T17:05:38;-2.20;99.90
6333;DHT22;3199;49.102;8.856;2022-12-18T17:08:04;-2.20;99.90
6333;DHT22;3199;49.102;8.856;2022-12-18T17:10:29;-2.20;99.90
6333;DHT22;3199;49.102;8.856;2022-12-18T17:12:55;-2.20;99.90
6333;DHT22;3199;49.102;8.856;2022-12-18T17:15:20;-2.20;99.90
6333;DHT22;3199;49.102;8.856;2022-12-18T17:17:46;-2.20;99.90
6333;DHT22;3199;49.102;8.856;2022-12-18T17:20:11;-2.20;99.90
6333;DHT22;3199;49.102;8.856;2022-12-18T17:22:37;-2.10;99.90
6333;DHT22;3199;49.102;8.856;2022-12-18T17:25:03;-2.20;99.90
6333;DHT22;3199;49.102;8.856;2022-12-18T17:27:28;-2.20;99.90
6333;DHT22;3199;49.102;8.856;2022-12-18T17:29:54;-2.10;99.90
6333;DHT22;3199;49.102;8.856;2022-12-18T17:32:20;-2.20;99.90
6333;DHT22;3199;49.102;8.856;2022-12-18T17:34:45;-2.20;99.90
6333;DHT22;3199;49.102;8.856;2022-12-18T17:37:11;-2.20;99.90
6333;DHT22;3199;49.102;8.856;2022-12-18T17:39:37;-2.20;99.90
6333;DHT22;3199;49.102;8.856;2022-12-18T17:42:02;-2.20;99.90
6333;DHT22;3199;49.102;8.856;2022-12-18T17:44:28;-2.20;99.90
6333;DHT22;3199;49.102;8.856;2022-12-18T17:46:54;-2.20;99.90
6333;DHT22;3199;49.102;8.856;2022-12-18T17:49:20;-2.20;99.90
6333;DHT22;3199;49.102;8.856;2022-12-18T17:51:45;-2.20;99.90
6333;DHT22;3199;49.102;8.856;2022-12-18T17:54:11;-2.30;99.90
6333;DHT22;3199;49.102;8.856;2022-12-18T17:56:37;-2.30;99.90
6333;DHT22;3199;49.102;8.856;2022-12-18T17:59:03;-2.30;99.90